createdAt,value
2018-04-08T00:04:03.791Z,14.60
2018-04-08T00:08:55.193Z,14.60
2018-04-08T00:13:46.589Z,14.60
2018-04-08T00:18:38.743Z,14.60
2018-04-08T00:23:30.937Z,14.50
2018-04-08T00:28:22.352Z,14.40
2018-04-08T00:33:13.827Z,14.40
2018-04-08T00:38:05.237Z,14.40
2018-04-08T00:42:56.660Z,14.30
2018-04-08T00:47:48.018Z,14.30
2018-04-08T00:52:39.457Z,14.20
2018-04-08T00:57:31.758Z,14.10
2018-04-08T01:02:23.173Z,14.10
2018-04-08T01:07:15.371Z,13.80
2018-04-08T01:12:06.847Z,13.80
2018-04-08T01:16:59.070Z,13.90
2018-04-08T01:21:50.566Z,13.90
2018-04-08T01:26:41.916Z,13.80
2018-04-08T01:31:33.305Z,13.90
2018-04-08T01:36:24.739Z,13.80
2018-04-08T01:41:16.136Z,13.70
2018-04-08T01:46:07.588Z,13.70
2018-04-08T01:50:59.750Z,13.50
2018-04-08T01:55:51.156Z,13.40
2018-04-08T02:00:42.596Z,13.50
2018-04-08T02:05:34.721Z,13.50
2018-04-08T02:10:26.101Z,13.50
2018-04-08T02:15:17.510Z,13.50
2018-04-08T02:20:09.747Z,13.60
2018-04-08T02:25:01.148Z,13.50
2018-04-08T02:29:52.571Z,13.60
2018-04-08T02:34:44.016Z,13.50
2018-04-08T02:39:35.410Z,13.60
2018-04-08T02:44:26.787Z,13.50
2018-04-08T02:49:18.192Z,13.60
2018-04-08T02:54:09.607Z,13.60
2018-04-08T02:59:01.050Z,13.50
2018-04-08T03:03:52.469Z,13.40
2018-04-08T03:08:43.892Z,13.50
2018-04-08T03:13:35.283Z,13.70
2018-04-08T03:18:27.732Z,13.70
2018-04-08T03:23:19.120Z,13.70
2018-04-08T03:28:10.556Z,13.70
2018-04-08T03:33:01.941Z,13.70
2018-04-08T03:37:53.335Z,13.70
2018-04-08T03:42:44.749Z,13.50
2018-04-08T03:47:36.224Z,13.50
2018-04-08T03:52:27.985Z,13.40
2018-04-08T03:57:20.197Z,13.10
2018-04-08T04:02:11.908Z,13.00
2018-04-08T04:07:03.315Z,13.10
2018-04-08T04:11:55.425Z,13.00
2018-04-08T04:16:46.866Z,12.90
2018-04-08T04:21:50.418Z,13.00
2018-04-08T04:26:41.844Z,12.90
2018-04-08T04:31:34.053Z,12.70
2018-04-08T04:36:25.465Z,12.60
2018-04-08T04:41:16.840Z,12.70
2018-04-08T04:46:09.059Z,12.80
2018-04-08T04:51:00.495Z,12.80
2018-04-08T04:55:51.916Z,13.00
2018-04-08T05:00:43.347Z,13.10
2018-04-08T05:05:34.784Z,13.10
2018-04-08T05:10:26.174Z,13.10
2018-04-08T05:15:17.572Z,13.10
2018-04-08T05:20:09.736Z,13.20
2018-04-08T05:25:01.943Z,13.30
2018-04-08T05:29:54.041Z,13.50
2018-04-08T05:34:45.427Z,13.40
2018-04-08T05:39:36.815Z,13.70
2018-04-08T05:44:28.419Z,13.90
2018-04-08T05:49:21.661Z,14.30
2018-04-08T05:54:13.068Z,14.20
2018-04-08T05:59:04.468Z,14.50
2018-04-08T06:03:56.558Z,15.90
2018-04-08T06:08:47.937Z,15.80
2018-04-08T06:13:40.078Z,17.90
2018-04-08T06:18:31.518Z,17.80
2018-04-08T06:23:30.833Z,18.80
2018-04-08T06:28:23.134Z,19.70
2018-04-08T06:33:14.579Z,19.60
2018-04-08T06:38:06.067Z,19.90
2018-04-08T06:42:57.503Z,20.10
2018-04-08T06:47:48.908Z,20.80
2018-04-08T06:52:41.028Z,18.10
2018-04-08T06:57:32.417Z,18.00
2018-04-08T07:02:23.842Z,19.00
2018-04-08T07:07:15.238Z,19.60
2018-04-08T07:12:06.632Z,20.80
2018-04-08T07:16:58.026Z,21.30
2018-04-08T07:21:50.178Z,22.30
2018-04-08T07:26:41.577Z,22.20
2018-04-08T07:31:32.977Z,22.20
2018-04-08T07:36:24.448Z,21.00
2018-04-08T07:41:15.865Z,19.40
2018-04-08T07:46:07.239Z,18.50
2018-04-08T07:50:58.652Z,18.90
2018-04-08T07:55:50.828Z,18.90
2018-04-08T08:00:42.207Z,18.90
2018-04-08T08:05:33.645Z,19.20
2018-04-08T08:10:25.028Z,20.30
2018-04-08T08:15:16.519Z,20.50
2018-04-08T08:20:08.656Z,19.40
2018-04-08T08:25:00.006Z,19.30
2018-04-08T08:29:52.191Z,19.00
2018-04-08T08:34:43.566Z,18.90
2018-04-08T08:39:34.958Z,19.30
2018-04-08T08:44:26.327Z,19.20
2018-04-08T08:49:17.711Z,19.40
2018-04-08T08:54:09.116Z,19.70
2018-04-08T08:59:01.275Z,20.10
2018-04-08T09:03:52.702Z,20.10
2018-04-08T09:08:44.274Z,19.80
2018-04-08T09:13:35.702Z,19.70
2018-04-08T09:18:27.147Z,20.10
2018-04-08T09:28:42.638Z,21.80
2018-04-08T09:33:34.080Z,21.80
2018-04-08T09:38:25.415Z,21.70
2018-04-08T09:43:16.838Z,22.40
2018-04-08T09:48:08.204Z,23.00
2018-04-08T09:52:59.600Z,22.90
2018-04-08T09:57:53.029Z,23.10
2018-04-08T10:02:54.402Z,23.20
2018-04-08T10:07:45.834Z,23.80
2018-04-08T10:12:37.576Z,23.20
2018-04-08T10:17:29.710Z,23.80
2018-04-08T10:22:21.235Z,23.70
2018-04-08T10:27:12.635Z,23.40
2018-04-08T10:32:04.028Z,23.60
2018-04-08T10:36:56.191Z,24.30
2018-04-08T10:41:48.317Z,24.20
2018-04-08T10:46:40.450Z,24.70
2018-04-08T10:51:32.005Z,24.60
2018-04-08T10:56:24.166Z,24.40
2018-04-08T11:01:16.284Z,24.40
2018-04-08T11:06:07.656Z,24.30
2018-04-08T11:10:59.068Z,24.00
2018-04-08T11:15:51.223Z,24.40
2018-04-08T11:20:43.438Z,24.80
2018-04-08T11:25:34.888Z,24.70
2018-04-08T11:30:26.332Z,24.60
2018-04-08T11:35:18.412Z,24.80
2018-04-08T11:40:09.810Z,24.80
2018-04-08T11:45:02.829Z,25.30
2018-04-08T11:49:54.258Z,25.20
2018-04-08T11:54:45.687Z,26.10
2018-04-08T11:59:37.113Z,26.10
2018-04-08T12:04:28.576Z,26.40
2018-04-08T12:09:19.974Z,26.40
2018-04-08T12:14:11.397Z,26.30
2018-04-08T12:19:02.821Z,26.40
2018-04-08T12:23:54.253Z,27.30
2018-04-08T12:28:45.745Z,27.80
2018-04-08T12:33:37.160Z,28.00
2018-04-08T12:38:28.590Z,27.30
2018-04-08T12:43:19.960Z,27.60
2018-04-08T12:48:12.098Z,26.90
2018-04-08T12:53:04.313Z,26.20
2018-04-08T12:57:55.795Z,26.20
2018-04-08T13:02:47.958Z,26.40
2018-04-08T13:07:39.370Z,26.40
2018-04-08T13:12:31.535Z,26.50
2018-04-08T13:17:22.949Z,26.50
2018-04-08T13:22:15.085Z,25.90
2018-04-08T13:27:06.486Z,25.90
2018-04-08T13:31:57.884Z,26.40
2018-04-08T13:36:49.297Z,26.30
2018-04-08T13:41:41.450Z,25.80
2018-04-08T13:46:33.584Z,25.80
2018-04-08T13:51:25.787Z,25.80
2018-04-08T13:56:17.449Z,25.70
2018-04-08T14:01:08.894Z,26.20
2018-04-08T14:06:00.312Z,26.00
2018-04-08T14:10:51.715Z,26.40
2018-04-08T14:15:43.066Z,26.80
2018-04-08T14:20:34.458Z,26.40
2018-04-08T14:25:25.871Z,26.20
2018-04-08T14:30:17.326Z,26.20
2018-04-08T14:35:09.076Z,26.20
2018-04-08T14:40:00.467Z,26.60
2018-04-08T14:44:52.609Z,26.50
2018-04-08T14:49:44.765Z,26.70
2018-04-08T14:54:36.905Z,26.40
2018-04-08T14:59:29.091Z,26.60
2018-04-08T15:04:20.536Z,26.60
2018-04-08T15:09:11.943Z,26.50
2018-04-08T15:14:03.405Z,26.10
2018-04-08T15:18:54.830Z,25.90
2018-04-08T15:23:46.308Z,25.90
2018-04-08T15:28:38.516Z,25.40
2018-04-08T15:33:29.977Z,25.30
2018-04-08T15:38:21.358Z,25.30
2018-04-08T15:43:12.777Z,25.40
2018-04-08T15:48:04.917Z,25.30
2018-04-08T15:52:57.037Z,25.30
2018-04-08T15:57:48.502Z,25.20
2018-04-08T16:02:40.678Z,25.40
2018-04-08T16:07:32.073Z,25.30
2018-04-08T16:12:24.220Z,25.40
2018-04-08T16:17:16.328Z,25.50
2018-04-08T16:22:07.710Z,25.40
2018-04-08T16:26:59.841Z,25.40
2018-04-08T16:31:52.005Z,25.20
2018-04-08T16:36:44.125Z,25.10
2018-04-08T16:41:35.530Z,25.00
2018-04-08T16:46:26.934Z,25.00
2018-04-08T16:51:18.342Z,24.80
2018-04-08T16:56:10.498Z,24.90
2018-04-08T17:01:01.930Z,24.80
2018-04-08T17:05:53.361Z,24.80
2018-04-08T17:10:45.610Z,24.60
2018-04-08T17:15:37.010Z,24.50
2018-04-08T17:20:28.441Z,24.50
2018-04-08T17:25:19.872Z,24.30
2018-04-08T17:30:11.259Z,24.00
2018-04-08T17:35:02.668Z,23.80
2018-04-08T17:39:54.816Z,23.40
2018-04-08T17:44:46.980Z,23.10
2018-04-08T17:49:38.413Z,23.10
2018-04-08T17:54:29.848Z,22.90
2018-04-08T17:59:21.287Z,22.70
2018-04-08T18:04:12.705Z,22.50
2018-04-08T18:09:04.157Z,22.40
2018-04-08T18:13:55.589Z,22.20
2018-04-08T18:18:46.982Z,21.90
2018-04-08T18:23:39.114Z,21.10
2018-04-08T18:28:30.557Z,21.00
2018-04-08T18:33:22.740Z,20.70
2018-04-08T18:38:14.136Z,20.60
2018-04-08T18:43:06.288Z,20.30
2018-04-08T18:47:58.524Z,20.20
2018-04-08T18:52:49.940Z,20.10
2018-04-08T18:57:41.348Z,20.00
2018-04-08T19:02:32.713Z,19.80
2018-04-08T19:07:24.104Z,19.60
2018-04-08T19:12:15.560Z,19.60
2018-04-08T19:17:07.008Z,19.30
2018-04-08T19:21:58.389Z,19.10
2018-04-08T19:26:49.769Z,18.80
2018-04-08T19:31:41.127Z,18.70
2018-04-08T19:36:33.309Z,18.50
2018-04-08T19:41:24.705Z,18.40
2018-04-08T19:46:16.882Z,18.20
2018-04-08T19:51:08.319Z,18.10
2018-04-08T19:55:59.763Z,18.00
2018-04-08T20:00:51.183Z,17.80
2018-04-08T20:05:42.582Z,17.70
2018-04-08T20:10:34.734Z,17.60
2018-04-08T20:15:26.867Z,17.70
2018-04-08T20:20:19.032Z,17.70
2018-04-08T20:25:11.169Z,18.00
2018-04-08T20:30:03.364Z,17.70
2018-04-08T20:34:54.771Z,17.60
2018-04-08T20:39:46.189Z,17.30
2018-04-08T20:44:38.312Z,16.80
2018-04-08T20:49:29.718Z,16.70
2018-04-08T20:54:21.171Z,16.80
2018-04-08T20:59:13.280Z,16.40
2018-04-08T21:04:04.821Z,16.30
2018-04-08T21:08:56.254Z,16.20
2018-04-08T21:13:48.108Z,16.10
2018-04-08T21:18:39.489Z,16.00
2018-04-08T21:23:31.823Z,16.10
2018-04-08T21:28:23.970Z,16.20
2018-04-08T21:33:16.871Z,16.00
2018-04-08T21:38:09.555Z,15.90
2018-04-08T21:43:01.203Z,15.90
2018-04-08T21:47:52.606Z,15.80
2018-04-08T21:52:44.798Z,15.70
2018-04-08T21:57:36.283Z,15.60
2018-04-08T22:02:27.729Z,15.40
2018-04-08T22:07:19.108Z,15.30
2018-04-08T22:12:11.456Z,15.40
2018-04-08T22:17:04.799Z,15.10
2018-04-08T22:21:56.509Z,15.10
2018-04-08T22:26:51.976Z,15.30
2018-04-08T22:31:44.623Z,15.50
2018-04-08T22:36:36.155Z,15.50
2018-04-08T22:41:28.737Z,15.60
2018-04-08T22:46:21.001Z,15.60
2018-04-08T22:51:12.656Z,15.50
2018-04-08T22:56:04.793Z,14.90
2018-04-08T23:00:56.226Z,14.90
2018-04-08T23:05:47.632Z,14.60
2018-04-08T23:10:39.001Z,14.40
2018-04-08T23:15:31.138Z,14.40
2018-04-08T23:20:23.293Z,14.70
2018-04-08T23:25:15.424Z,15.10
2018-04-08T23:30:06.862Z,15.00
2018-04-08T23:34:59.025Z,14.70
2018-04-08T23:39:51.143Z,14.50
2018-04-08T23:44:42.573Z,14.40
2018-04-08T23:49:34.020Z,14.40
2018-04-08T23:54:25.422Z,14.40
2018-04-08T23:59:16.827Z,14.30
